Time;durP1;ratioP1;P1;durP2;ratioP2;P2;SDS_P1;SDS_P2;PMS_P1;PMS_P2;Temp;Humidity;BMP_temperature;BMP_pressure;BME280_temperature;BME280_humidity;BME280_pressure;Samples;Min_cycle;Max_cycle;Signal;HPM_P1;HPM_P2
2022/03/13 00:02:02;;;;;;;24.63;19.20;;;8.90;99.90;;;;;;5000358;28;20065;-72
2022/03/13 00:04:28;;;;;;;24.88;19.48;;;8.80;99.90;;;;;;5000101;28;20436;-72
2022/03/13 00:06:55;;;;;;;25.52;19.65;;;8.90;99.90;;;;;;5017498;28;20121;-73
2022/03/13 00:09:25;;;;;;;27.65;18.73;;;8.80;99.90;;;;;;5017202;28;20587;-73
2022/03/13 00:11:53;;;;;;;22.75;18.35;;;8.80;99.90;;;;;;4999764;28;20049;-74
2022/03/13 00:14:20;;;;;;;25.33;18.83;;;8.80;99.90;;;;;;5017226;28;20064;-74
2022/03/13 00:16:47;;;;;;;26.38;18.85;;;8.70;99.90;;;;;;5017307;28;20050;-74
2022/03/13 00:19:12;;;;;;;24.55;19.50;;;8.70;99.90;;;;;;5016810;28;20452;-72
2022/03/13 00:21:39;;;;;;;24.55;19.42;;;8.70;99.90;;;;;;4998932;28;20068;-74
2022/03/13 00:24:07;;;;;;;26.58;19.38;;;8.70;99.90;;;;;;5000056;28;20089;-73
2022/03/13 00:26:34;;;;;;;25.02;19.25;;;8.70;99.90;;;;;;5016809;28;20061;-72
2022/03/13 00:29:00;;;;;;;26.17;20.05;;;8.60;99.90;;;;;;5016956;28;20058;-72
2022/03/13 00:31:25;;;;;;;28.23;20.20;;;8.70;99.90;;;;;;5017234;28;20034;-72
2022/03/13 00:33:51;;;;;;;23.13;18.95;;;8.60;99.90;;;;;;5016691;28;20046;-72
2022/03/13 00:36:17;;;;;;;27.02;20.13;;;8.60;99.90;;;;;;5016747;28;20121;-73
2022/03/13 00:38:42;;;;;;;29.77;20.38;;;8.60;99.90;;;;;;5016848;28;20050;-72
2022/03/13 00:41:09;;;;;;;24.20;19.52;;;8.60;99.90;;;;;;5016194;28;20054;-74
2022/03/13 00:43:34;;;;;;;27.98;19.05;;;8.60;99.90;;;;;;4999456;28;20089;-73
2022/03/13 00:46:00;;;;;;;24.98;19.30;;;8.60;99.90;;;;;;5016981;28;20080;-72
2022/03/13 00:48:27;;;;;;;23.27;19.38;;;8.50;99.90;;;;;;5016718;28;20115;-73
2022/03/13 00:50:53;;;;;;;27.15;19.40;;;8.50;99.90;;;;;;5015959;28;20038;-73
2022/03/13 00:53:18;;;;;;;24.60;19.42;;;8.50;99.90;;;;;;5016173;28;20440;-73
2022/03/13 00:55:44;;;;;;;28.13;20.50;;;8.50;99.90;;;;;;5016198;28;20057;-74
2022/03/13 00:58:09;;;;;;;24.25;18.73;;;8.50;99.90;;;;;;5016272;28;20372;-73
2022/03/13 01:00:35;;;;;;;23.88;19.45;;;8.50;99.90;;;;;;5016447;28;20463;-72
2022/03/13 01:03:01;;;;;;;24.70;19.27;;;8.50;99.90;;;;;;5016526;28;20038;-73
2022/03/13 01:05:28;;;;;;;25.10;18.70;;;8.50;99.90;;;;;;5016162;28;20110;-73
2022/03/13 01:07:56;;;;;;;23.80;18.73;;;8.50;99.90;;;;;;5016222;28;20041;-73
2022/03/13 01:10:23;;;;;;;24.85;18.83;;;8.50;99.90;;;;;;5009272;28;20084;-74
2022/03/13 01:12:50;;;;;;;28.08;19.48;;;8.50;99.90;;;;;;4996877;28;20050;-73
2022/03/13 01:15:17;;;;;;;25.75;19.75;;;8.50;99.90;;;;;;4996544;28;20109;-72
2022/03/13 01:17:43;;;;;;;26.48;20.15;;;8.50;99.90;;;;;;4996497;28;20038;-73
2022/03/13 01:20:21;;;;;;;27.17;20.58;;;8.60;99.90;;;;;;5011521;28;20452;-72
2022/03/13 01:22:47;;;;;;;26.80;19.30;;;8.50;99.90;;;;;;5015833;28;20038;-73
2022/03/13 01:25:13;;;;;;;28.13;20.20;;;8.50;99.90;;;;;;5008881;28;20034;-72
2022/03/13 01:27:39;;;;;;;25.77;19.77;;;8.60;99.90;;;;;;5006010;28;20033;-73
2022/03/13 01:30:06;;;;;;;27.27;19.92;;;8.50;99.90;;;;;;5015926;28;20133;-74
2022/03/13 01:32:32;;;;;;;27.10;18.65;;;8.50;99.90;;;;;;5014845;28;20105;-74
2022/03/13 01:34:58;;;;;;;25.45;20.20;;;8.50;99.90;;;;;;5015991;28;20081;-73
2022/03/13 01:37:33;;;;;;;25.48;19.77;;;8.60;99.90;;;;;;5015761;28;20096;-73
2022/03/13 01:40:01;;;;;;;23.42;18.45;;;8.60;99.90;;;;;;5009662;28;20533;-73
2022/03/13 01:42:27;;;;;;;27.85;18.92;;;8.60;99.90;;;;;;4979128;28;20046;-74
2022/03/13 01:44:54;;;;;;;23.45;19.52;;;8.50;99.90;;;;;;4996316;28;20034;-74
2022/03/13 01:47:19;;;;;;;25.65;19.05;;;8.60;99.90;;;;;;4978371;28;20069;-73
2022/03/13 01:49:46;;;;;;;25.45;18.48;;;8.60;99.90;;;;;;4996035;28;20088;-73
2022/03/13 01:52:15;;;;;;;24.30;19.15;;;8.60;99.90;;;;;;4978511;28;20053;-74
2022/03/13 01:54:42;;;;;;;24.90;18.20;;;8.60;99.90;;;;;;4996372;28;20049;-74
2022/03/13 01:57:08;;;;;;;21.88;18.27;;;8.60;99.90;;;;;;4995398;28;20038;-73
2022/03/13 01:59:35;;;;;;;25.95;19.17;;;8.60;99.90;;;;;;4995710;28;20062;-73
2022/03/13 02:02:02;;;;;;;24.80;19.13;;;8.60;99.90;;;;;;4995506;28;20050;-73
2022/03/13 02:04:30;;;;;;;24.67;19.95;;;8.60;99.90;;;;;;4994749;28;20456;-73
2022/03/13 02:06:57;;;;;;;28.67;19.33;;;8.60;99.90;;;;;;4995337;28;20440;-73
2022/03/13 02:09:23;;;;;;;25.58;19.50;;;8.60;99.90;;;;;;4995496;28;20358;-73
2022/03/13 02:11:50;;;;;;;24.73;18.67;;;8.60;99.90;;;;;;4995397;28;20042;-73
2022/03/13 02:14:17;;;;;;;24.02;19.40;;;8.60;99.90;;;;;;4994790;28;20074;-74
2022/03/13 02:16:44;;;;;;;25.63;20.05;;;8.60;99.90;;;;;;4995529;28;20368;-74
2022/03/13 02:19:10;;;;;;;27.90;20.48;;;8.50;99.90;;;;;;4995395;28;20148;-73
2022/03/13 02:21:44;;;;;;;25.95;20.30;;;8.60;99.90;;;;;;4995342;28;20057;-73
2022/03/13 02:24:14;;;;;;;25.50;20.23;;;8.60;99.90;;;;;;4995510;28;20053;-73
2022/03/13 02:26:42;;;;;;;23.52;19.17;;;8.60;99.90;;;;;;4975964;28;20039;-73
2022/03/13 02:29:12;;;;;;;29.65;20.80;;;8.50;99.90;;;;;;4957961;28;20059;-73
2022/03/13 02:31:38;;;;;;;26.00;20.05;;;8.50;99.90;;;;;;4975953;28;20093;-73
2022/03/13 02:34:08;;;;;;;24.42;19.77;;;8.50;99.90;;;;;;4976248;28;20043;-72
2022/03/13 02:36:37;;;;;;;25.30;19.73;;;8.50;99.90;;;;;;4975992;28;20039;-73
2022/03/13 02:39:07;;;;;;;25.02;19.40;;;8.50;99.90;;;;;;4976445;28;20485;-73
2022/03/13 02:41:33;;;;;;;24.73;19.48;;;8.50;99.90;;;;;;4994829;28;20045;-73
2022/03/13 02:43:59;;;;;;;26.17;19.27;;;8.50;99.90;;;;;;4995555;28;20053;-73
2022/03/13 02:46:48;;;;;;;25.48;20.00;;;8.50;99.90;;;;;;4999332;28;20049;-73
2022/03/13 02:49:15;;;;;;;27.45;20.80;;;8.50;99.90;;;;;;4998825;28;20156;-73
2022/03/13 02:51:41;;;;;;;23.63;18.85;;;8.50;99.90;;;;;;4998395;28;20105;-73
2022/03/13 02:54:08;;;;;;;24.20;19.30;;;8.50;99.90;;;;;;4998223;28;20117;-73
2022/03/13 02:56:34;;;;;;;24.45;19.33;;;8.50;99.90;;;;;;4999328;28;20372;-73
2022/03/13 02:59:00;;;;;;;28.95;19.77;;;8.50;99.90;;;;;;4981997;28;20058;-72
2022/03/13 03:01:26;;;;;;;26.95;19.83;;;8.50;99.90;;;;;;4998868;28;20052;-74
2022/03/13 03:04:00;;;;;;;26.23;18.90;;;8.50;99.90;;;;;;4999088;28;20129;-72
2022/03/13 03:06:28;;;;;;;26.60;20.70;;;8.50;99.90;;;;;;4998636;28;20152;-73
2022/03/13 03:08:54;;;;;;;26.00;19.85;;;8.50;99.90;;;;;;4998427;28;20445;-72
2022/03/13 03:11:20;;;;;;;27.38;19.08;;;8.50;99.90;;;;;;4998781;28;20042;-73
2022/03/13 03:13:45;;;;;;;26.02;19.98;;;8.50;99.90;;;;;;4997829;28;20039;-73
2022/03/13 03:16:11;;;;;;;27.30;20.35;;;8.50;99.90;;;;;;4999032;28;20129;-72
2022/03/13 03:18:37;;;;;;;27.13;19.20;;;8.50;99.90;;;;;;4998762;28;20089;-73
2022/03/13 03:21:03;;;;;;;25.67;18.92;;;8.50;99.90;;;;;;4997539;28;20061;-73
2022/03/13 03:23:28;;;;;;;28.45;19.42;;;8.50;99.90;;;;;;4997507;28;20054;-73
2022/03/13 03:25:54;;;;;;;28.20;19.33;;;8.50;99.90;;;;;;4998550;28;20046;-74
2022/03/13 03:28:21;;;;;;;26.80;20.10;;;8.50;99.90;;;;;;4998534;28;20093;-73
2022/03/13 03:30:47;;;;;;;26.40;19.63;;;8.50;99.90;;;;;;4996588;28;20098;-74
2022/03/13 03:33:12;;;;;;;25.48;18.67;;;8.50;99.90;;;;;;4997008;28;20074;-72
2022/03/13 03:35:38;;;;;;;29.55;19.27;;;8.50;99.90;;;;;;4998143;28;20046;-73
2022/03/13 03:38:03;;;;;;;24.02;19.40;;;8.50;99.90;;;;;;4998235;28;20046;-73
2022/03/13 03:40:31;;;;;;;26.83;18.63;;;8.50;99.90;;;;;;4998487;28;20352;-71
2022/03/13 03:42:59;;;;;;;29.67;20.15;;;8.50;99.90;;;;;;4997846;28;20061;-69
2022/03/13 03:45:24;;;;;;;23.67;18.25;;;8.50;99.90;;;;;;4998349;28;20129;-71
2022/03/13 03:47:50;;;;;;;24.98;20.10;;;8.50;99.90;;;;;;4998173;28;20196;-70
2022/03/13 03:50:17;;;;;;;29.20;20.27;;;8.50;99.90;;;;;;4998115;28;20045;-74
2022/03/13 03:52:44;;;;;;;25.63;20.17;;;8.50;99.90;;;;;;4998495;28;20057;-73
2022/03/13 03:55:09;;;;;;;24.63;18.13;;;8.50;99.90;;;;;;4997582;28;20053;-73
2022/03/13 03:57:35;;;;;;;26.38;18.80;;;8.50;99.90;;;;;;4996113;28;20050;-73
2022/03/13 04:00:00;;;;;;;24.08;18.42;;;8.50;99.90;;;;;;4997634;28;20078;-73
2022/03/13 04:02:26;;;;;;;23.98;18.67;;;8.50;99.90;;;;;;4998066;28;20124;-72
2022/03/13 04:04:51;;;;;;;25.42;20.05;;;8.50;99.90;;;;;;4997811;28;20130;-74
2022/03/13 04:07:18;;;;;;;23.83;17.73;;;8.50;99.90;;;;;;4997934;28;20433;-74
2022/03/13 04:09:43;;;;;;;25.90;18.88;;;8.50;99.90;;;;;;4996834;28;20053;-72
2022/03/13 04:12:09;;;;;;;26.10;18.77;;;8.50;99.90;;;;;;4997166;28;20117;-73
2022/03/13 04:14:35;;;;;;;25.67;18.40;;;8.50;99.90;;;;;;4997712;28;20125;-74
2022/03/13 04:17:01;;;;;;;22.50;17.58;;;8.50;99.90;;;;;;4997463;28;20057;-72
2022/03/13 04:19:27;;;;;;;24.65;17.55;;;8.50;99.90;;;;;;4996777;28;20101;-73
2022/03/13 04:21:54;;;;;;;23.65;18.25;;;8.50;99.90;;;;;;4997249;28;20090;-73
2022/03/13 04:24:20;;;;;;;23.38;18.20;;;8.50;99.90;;;;;;4996851;28;20109;-73
2022/03/13 04:26:46;;;;;;;25.30;17.23;;;8.50;99.90;;;;;;4997467;28;20132;-72
2022/03/13 04:29:12;;;;;;;22.48;16.80;;;8.60;99.90;;;;;;4997482;28;20125;-73
2022/03/13 04:31:41;;;;;;;23.40;16.73;;;8.60;99.90;;;;;;4997173;28;20104;-73
2022/03/13 04:34:07;;;;;;;22.45;17.80;;;8.60;99.90;;;;;;4997340;28;20377;-72
2022/03/13 04:36:33;;;;;;;24.83;16.15;;;8.60;99.90;;;;;;4997212;28;20101;-73
2022/03/13 04:39:01;;;;;;;22.50;16.95;;;8.60;99.90;;;;;;4997462;28;20038;-73
2022/03/13 04:41:27;;;;;;;25.23;17.00;;;8.60;99.90;;;;;;4977507;28;20086;-74
2022/03/13 04:43:53;;;;;;;23.25;16.20;;;8.60;99.90;;;;;;4996523;28;20441;-74
2022/03/13 04:46:19;;;;;;;21.67;16.27;;;8.60;99.90;;;;;;4997366;28;20053;-72
2022/03/13 04:48:45;;;;;;;22.27;17.17;;;8.60;99.90;;;;;;4996718;28;20042;-74
2022/03/13 04:51:10;;;;;;;24.88;16.75;;;8.60;99.90;;;;;;4996761;28;20057;-72
2022/03/13 04:53:36;;;;;;;21.17;16.50;;;8.60;99.90;;;;;;4997635;28;20112;-73
2022/03/13 04:56:02;;;;;;;23.13;17.20;;;8.60;99.90;;;;;;4996042;28;20361;-73
2022/03/13 04:58:28;;;;;;;23.10;16.83;;;8.60;99.90;;;;;;4996691;28;20085;-74
2022/03/13 05:00:53;;;;;;;22.30;17.00;;;8.50;99.90;;;;;;4996967;28;20519;-73
2022/03/13 05:03:19;;;;;;;21.35;17.48;;;8.50;99.90;;;;;;4995624;28;20046;-72
2022/03/13 05:05:45;;;;;;;23.13;17.98;;;8.50;99.90;;;;;;4997006;28;20337;-72
2022/03/13 05:08:15;;;;;;;27.65;19.77;;;8.50;99.90;;;;;;4996339;28;20360;-73
2022/03/13 05:10:43;;;;;;;22.75;17.92;;;8.50;99.90;;;;;;4996549;28;20054;-73
2022/03/13 05:13:11;;;;;;;22.58;18.23;;;8.40;99.90;;;;;;4996804;28;20077;-73
2022/03/13 05:15:37;;;;;;;25.85;19.17;;;8.40;99.90;;;;;;4996951;28;20134;-73
2022/03/13 05:18:03;;;;;;;24.67;20.02;;;8.40;99.90;;;;;;4996357;28;20046;-73
2022/03/13 05:20:30;;;;;;;24.60;18.92;;;8.40;99.90;;;;;;4996535;28;20038;-73
2022/03/13 05:22:55;;;;;;;27.88;19.52;;;8.40;99.90;;;;;;4994853;28;20090;-72
2022/03/13 05:25:23;;;;;;;26.23;19.52;;;8.30;99.90;;;;;;4996400;28;20089;-73
2022/03/13 05:27:52;;;;;;;25.63;18.77;;;8.30;99.90;;;;;;4996608;28;20395;-73
2022/03/13 05:30:20;;;;;;;28.90;19.90;;;8.30;99.90;;;;;;4995012;28;20368;-73
2022/03/13 05:32:46;;;;;;;28.02;19.17;;;8.30;99.90;;;;;;4996208;28;20101;-72
2022/03/13 05:35:12;;;;;;;27.25;19.45;;;8.30;99.90;;;;;;4996176;28;20113;-74
2022/03/13 05:37:37;;;;;;;24.83;20.10;;;8.30;99.90;;;;;;4995789;28;20050;-72
2022/03/13 05:40:06;;;;;;;29.35;20.77;;;8.30;99.90;;;;;;4995688;28;20137;-72
2022/03/13 05:42:31;;;;;;;24.25;19.27;;;8.30;99.90;;;;;;4996382;28;20112;-72
2022/03/13 05:44:57;;;;;;;25.83;21.00;;;8.30;99.90;;;;;;4996275;28;20456;-73
2022/03/13 05:47:23;;;;;;;27.92;19.90;;;8.30;99.90;;;;;;4995817;28;20061;-73
2022/03/13 05:49:49;;;;;;;26.23;19.98;;;8.30;99.90;;;;;;4995885;28;20136;-72
2022/03/13 05:52:15;;;;;;;26.48;20.48;;;8.30;99.90;;;;;;4995286;28;20066;-72
2022/03/13 05:54:44;;;;;;;25.17;19.77;;;8.20;99.90;;;;;;4996001;28;20046;-73
2022/03/13 05:57:11;;;;;;;26.83;19.25;;;8.20;99.90;;;;;;4995833;28;20042;-72
2022/03/13 05:59:38;;;;;;;35.72;21.20;;;8.20;99.90;;;;;;5014052;28;20046;-72
2022/03/13 06:02:05;;;;;;;27.23;21.13;;;8.30;99.90;;;;;;4999126;28;20427;-70
2022/03/13 06:04:32;;;;;;;28.50;20.20;;;8.30;99.90;;;;;;4995673;28;20060;-71
2022/03/13 06:06:59;;;;;;;30.23;21.23;;;8.20;99.90;;;;;;4995945;28;20056;-71
2022/03/13 06:09:25;;;;;;;26.65;20.60;;;8.20;99.90;;;;;;4995670;28;20042;-70
2022/03/13 06:11:50;;;;;;;28.60;21.20;;;8.30;99.90;;;;;;4995528;28;20096;-70
2022/03/13 06:14:17;;;;;;;29.55;20.92;;;8.30;99.90;;;;;;4995326;28;20042;-71
2022/03/13 06:16:42;;;;;;;23.83;19.48;;;8.20;99.90;;;;;;5010635;28;20081;-70
2022/03/13 06:19:08;;;;;;;27.52;20.85;;;8.20;99.90;;;;;;4997008;28;20444;-70
2022/03/13 06:21:33;;;;;;;22.60;18.45;;;8.20;99.90;;;;;;5015077;28;20050;-73
2022/03/13 06:23:59;;;;;;;28.67;20.48;;;8.20;99.90;;;;;;5015031;28;20030;-72
2022/03/13 06:26:24;;;;;;;28.65;21.27;;;8.30;99.90;;;;;;5015087;28;20068;-72
2022/03/13 06:28:50;;;;;;;24.75;19.00;;;8.30;99.90;;;;;;5014956;28;20042;-73
2022/03/13 06:31:16;;;;;;;26.63;19.50;;;8.30;99.90;;;;;;5000713;28;20126;-73
2022/03/13 06:33:41;;;;;;;26.90;20.33;;;8.30;99.90;;;;;;4995128;28;20459;-73
2022/03/13 06:36:07;;;;;;;31.00;20.85;;;8.20;99.90;;;;;;4995326;28;20098;-73
2022/03/13 06:38:33;;;;;;;26.67;20.63;;;8.30;99.90;;;;;;4995397;28;20073;-73
2022/03/13 06:40:58;;;;;;;27.83;20.50;;;8.30;99.90;;;;;;4995044;28;20057;-73
2022/03/13 06:43:24;;;;;;;28.52;20.45;;;8.30;99.90;;;;;;4996046;28;20053;-73
2022/03/13 06:45:49;;;;;;;27.42;20.55;;;8.30;99.90;;;;;;4997362;28;20459;-74
2022/03/13 06:48:15;;;;;;;25.00;20.33;;;8.30;99.90;;;;;;5014958;28;20081;-73
2022/03/13 06:50:42;;;;;;;25.15;19.63;;;8.30;99.90;;;;;;5014664;28;20514;-73
2022/03/13 06:53:09;;;;;;;27.13;20.70;;;8.30;99.90;;;;;;4989561;28;20050;-73
2022/03/13 06:55:35;;;;;;;26.95;19.95;;;8.30;99.90;;;;;;4995166;28;20129;-72
2022/03/13 06:58:00;;;;;;;28.58;20.58;;;8.30;99.90;;;;;;4994930;28;20133;-72
2022/03/13 07:00:26;;;;;;;23.48;18.70;;;8.30;99.90;;;;;;4995253;28;20334;-73
2022/03/13 07:02:52;;;;;;;25.95;20.58;;;8.30;99.90;;;;;;4994848;28;20050;-71
2022/03/13 07:05:19;;;;;;;25.67;20.23;;;8.40;99.90;;;;;;4995248;28;20042;-73
2022/03/13 07:07:44;;;;;;;25.65;19.45;;;8.40;99.90;;;;;;4995174;28;20035;-73
2022/03/13 07:10:12;;;;;;;25.83;18.67;;;8.40;99.90;;;;;;4994407;28;20516;-73
2022/03/13 07:12:38;;;;;;;24.15;18.58;;;8.40;99.90;;;;;;4994592;28;20042;-73
2022/03/13 07:15:08;;;;;;;26.50;19.33;;;8.40;99.90;;;;;;4995078;28;20042;-73
2022/03/13 07:17:34;;;;;;;23.02;18.40;;;8.50;99.90;;;;;;4994931;28;20108;-73
2022/03/13 07:19:59;;;;;;;29.88;18.58;;;8.50;99.90;;;;;;4995315;28;20046;-73
2022/03/13 07:22:25;;;;;;;22.88;17.70;;;8.50;99.90;;;;;;4994761;28;20042;-72
2022/03/13 07:24:51;;;;;;;23.23;18.38;;;8.60;99.90;;;;;;4944939;28;20046;-73
2022/03/13 07:27:16;;;;;;;24.73;17.77;;;8.60;99.90;;;;;;4993965;28;20046;-73
2022/03/13 07:29:42;;;;;;;24.08;18.10;;;8.60;99.90;;;;;;4994940;28;20038;-73
2022/03/13 07:32:08;;;;;;;27.23;17.85;;;8.60;99.90;;;;;;4998314;28;20130;-72
2022/03/13 07:34:34;;;;;;;23.98;17.27;;;8.60;99.90;;;;;;4998154;28;20042;-73
2022/03/13 07:36:59;;;;;;;26.05;17.60;;;8.70;99.90;;;;;;4997609;28;20450;-72
2022/03/13 07:39:25;;;;;;;21.95;17.40;;;8.60;99.90;;;;;;4998393;28;20053;-73
2022/03/13 07:41:51;;;;;;;23.02;18.40;;;8.70;99.90;;;;;;4998098;28;20045;-73
2022/03/13 07:44:17;;;;;;;26.73;18.65;;;8.70;99.90;;;;;;4998612;28;20048;-74
2022/03/13 07:46:43;;;;;;;24.92;18.60;;;8.70;99.90;;;;;;4981440;28;20042;-72
2022/03/13 07:49:08;;;;;;;21.80;16.95;;;8.70;99.90;;;;;;4998218;28;20108;-73
2022/03/13 07:51:36;;;;;;;23.70;17.17;;;8.70;99.90;;;;;;4997877;28;20121;-73
2022/03/13 07:54:02;;;;;;;23.70;17.77;;;8.70;99.90;;;;;;4998332;28;20169;-73
2022/03/13 07:56:29;;;;;;;24.98;18.90;;;8.60;99.90;;;;;;4997726;28;20472;-72
2022/03/13 07:58:55;;;;;;;25.92;19.98;;;8.70;99.90;;;;;;5000268;28;20061;-73
2022/03/13 08:01:20;;;;;;;22.67;17.98;;;8.70;99.90;;;;;;5017553;28;20056;-72
2022/03/13 08:03:47;;;;;;;22.70;17.40;;;8.70;99.90;;;;;;5000193;28;20046;-72
2022/03/13 08:06:13;;;;;;;26.83;18.90;;;8.60;99.90;;;;;;5016960;28;20052;-72
2022/03/13 08:08:38;;;;;;;26.85;17.52;;;8.70;99.90;;;;;;4997824;28;20046;-73
2022/03/13 08:11:04;;;;;;;25.58;19.08;;;8.70;99.90;;;;;;4997752;28;20043;-73
2022/03/13 08:13:30;;;;;;;26.05;17.75;;;8.70;99.90;;;;;;4997793;28;20034;-72
2022/03/13 08:15:55;;;;;;;24.85;18.17;;;8.60;99.90;;;;;;4998032;28;20046;-72
2022/03/13 08:18:21;;;;;;;22.15;17.05;;;8.70;99.90;;;;;;4998768;28;20524;-72
2022/03/13 08:20:47;;;;;;;25.42;18.33;;;8.80;99.90;;;;;;5017111;28;20053;-73
2022/03/13 08:23:13;;;;;;;23.17;17.75;;;8.70;99.90;;;;;;5016730;28;20436;-73
2022/03/13 08:25:39;;;;;;;22.15;16.58;;;8.80;99.90;;;;;;5016377;28;20091;-72
2022/03/13 08:28:06;;;;;;;25.33;18.55;;;8.80;99.90;;;;;;4999762;28;20356;-74
2022/03/13 08:30:33;;;;;;;23.80;17.70;;;8.80;99.90;;;;;;5017105;28;20121;-71
2022/03/13 08:32:58;;;;;;;25.38;17.95;;;8.90;99.90;;;;;;5016878;28;20049;-75
2022/03/13 08:35:24;;;;;;;21.95;17.63;;;9.00;99.90;;;;;;5017028;28;20095;-74
2022/03/13 08:37:51;;;;;;;22.90;17.75;;;9.00;99.90;;;;;;5000084;28;20056;-75
2022/03/13 08:40:16;;;;;;;25.92;17.38;;;9.10;99.90;;;;;;5016352;28;20037;-72
2022/03/13 08:42:42;;;;;;;21.35;15.65;;;9.20;99.90;;;;;;5015652;28;20125;-71
2022/03/13 08:45:11;;;;;;;23.33;17.13;;;9.30;99.90;;;;;;5016609;28;20038;-69
2022/03/13 08:47:37;;;;;;;21.13;16.65;;;9.40;99.90;;;;;;5016937;28;20052;-74
2022/03/13 08:50:03;;;;;;;20.52;16.52;;;9.50;99.90;;;;;;4999773;28;20147;-74
2022/03/13 08:52:29;;;;;;;21.95;15.70;;;9.50;99.90;;;;;;5016780;28;20325;-72
2022/03/13 08:54:54;;;;;;;23.55;17.48;;;9.60;99.90;;;;;;4998581;28;20073;-73
2022/03/13 08:57:20;;;;;;;22.05;16.92;;;9.60;99.90;;;;;;5016453;28;20337;-73
2022/03/13 08:59:46;;;;;;;22.67;17.08;;;9.60;99.90;;;;;;5016189;28;20360;-72
2022/03/13 09:02:11;;;;;;;21.15;16.67;;;9.60;99.90;;;;;;5016397;28;20454;-73
2022/03/13 09:04:37;;;;;;;23.25;16.60;;;9.70;99.90;;;;;;5016657;28;20059;-73
2022/03/13 09:07:02;;;;;;;22.52;16.13;;;9.70;99.90;;;;;;4999374;28;20050;-74
2022/03/13 09:09:28;;;;;;;25.58;17.00;;;9.80;99.90;;;;;;5012345;28;20033;-72
2022/03/13 09:11:54;;;;;;;21.08;16.52;;;9.80;99.90;;;;;;5016118;28;20077;-72
2022/03/13 09:14:20;;;;;;;20.30;16.17;;;9.90;99.90;;;;;;5016323;28;20064;-74
2022/03/13 09:16:46;;;;;;;27.35;16.98;;;10.00;99.90;;;;;;5016100;28;20038;-72
2022/03/13 09:19:12;;;;;;;26.20;16.77;;;10.00;99.90;;;;;;5024294;28;20051;-73
2022/03/13 09:21:40;;;;;;;23.42;16.60;;;10.00;99.90;;;;;;5035410;28;20469;-70
2022/03/13 09:24:08;;;;;;;21.88;16.35;;;10.00;99.90;;;;;;5034515;28;20053;-72
2022/03/13 09:26:34;;;;;;;23.90;17.25;;;10.00;99.90;;;;;;5016058;28;20049;-72
2022/03/13 09:29:02;;;;;;;21.23;16.08;;;10.10;99.90;;;;;;5016265;28;20049;-71
2022/03/13 09:31:27;;;;;;;22.33;16.90;;;10.20;99.90;;;;;;5015920;28;20395;-71
2022/03/13 09:33:53;;;;;;;19.83;16.20;;;10.20;99.90;;;;;;5015681;28;20037;-70
2022/03/13 09:36:19;;;;;;;23.33;17.13;;;10.30;99.90;;;;;;5015729;28;20042;-71
2022/03/13 09:38:45;;;;;;;21.70;16.75;;;10.40;99.90;;;;;;5015459;28;20041;-71
2022/03/13 09:41:12;;;;;;;21.67;16.40;;;10.40;99.90;;;;;;5015541;28;20112;-72
2022/03/13 09:43:38;;;;;;;24.80;16.88;;;10.50;99.90;;;;;;5015567;28;20048;-73
2022/03/13 09:46:04;;;;;;;20.95;16.63;;;10.50;99.90;;;;;;5015805;28;20046;-72
2022/03/13 09:48:30;;;;;;;21.02;16.70;;;10.60;99.90;;;;;;5015618;28;20037;-74
2022/03/13 09:50:56;;;;;;;20.73;16.70;;;10.70;99.90;;;;;;5015584;28;20045;-75
2022/03/13 09:53:22;;;;;;;23.42;16.95;;;10.80;99.90;;;;;;5014294;28;20100;-73
2022/03/13 09:55:48;;;;;;;23.73;16.73;;;11.00;99.90;;;;;;5015503;28;20124;-74
2022/03/13 09:58:14;;;;;;;23.85;17.10;;;11.20;99.90;;;;;;5015204;28;20129;-73
2022/03/13 10:00:39;;;;;;;25.75;18.42;;;11.30;99.90;;;;;;4997746;28;20083;-74
2022/03/13 10:03:08;;;;;;;21.95;15.75;;;11.40;99.90;;;;;;4997927;28;20046;-73
2022/03/13 10:05:44;;;;;;;22.75;16.58;;;11.40;99.90;;;;;;4997704;28;20046;-74
2022/03/13 10:08:11;;;;;;;22.52;16.45;;;11.40;99.90;;;;;;5014968;28;20053;-73
2022/03/13 10:10:48;;;;;;;24.88;17.38;;;11.50;99.90;;;;;;5015250;28;20100;-73
2022/03/13 10:13:16;;;;;;;23.02;17.63;;;11.50;99.90;;;;;;5015222;28;20037;-71
2022/03/13 10:15:46;;;;;;;21.17;16.02;;;11.50;99.90;;;;;;5014728;28;20278;-72
2022/03/13 10:18:16;;;;;;;24.20;17.55;;;11.60;99.90;;;;;;5014753;28;20034;-72
2022/03/13 10:20:43;;;;;;;20.55;16.85;;;11.60;99.90;;;;;;4995292;28;20042;-71
2022/03/13 10:23:11;;;;;;;25.10;17.77;;;11.70;99.90;;;;;;4995274;28;20042;-72
2022/03/13 10:25:39;;;;;;;21.75;16.85;;;11.60;99.90;;;;;;4995171;28;20049;-72
2022/03/13 10:28:21;;;;;;;22.00;16.13;;;11.60;99.90;;;;;;4995234;28;20077;-71
2022/03/13 10:31:11;;;;;;;24.08;17.58;;;11.70;99.90;;;;;;5014318;28;20112;-72
2022/03/13 10:33:43;;;;;;;23.38;17.80;;;11.70;99.90;;;;;;5014885;28;20380;-72
2022/03/13 10:36:11;;;;;;;19.75;16.05;;;11.70;99.90;;;;;;5014598;28;20103;-72
2022/03/13 10:38:37;;;;;;;23.63;17.00;;;11.80;99.90;;;;;;5015314;28;20431;-71
2022/03/13 10:41:08;;;;;;;20.85;16.50;;;11.90;99.90;;;;;;5014739;28;20048;-73
2022/03/13 10:43:46;;;;;;;23.13;17.20;;;12.00;99.90;;;;;;4997805;28;20535;-71
2022/03/13 10:46:23;;;;;;;21.15;16.65;;;12.00;99.90;;;;;;5014456;28;20038;-71
2022/03/13 10:48:48;;;;;;;25.60;17.38;;;12.10;99.90;;;;;;5014866;28;20048;-72
2022/03/13 10:51:14;;;;;;;23.05;17.50;;;12.10;99.90;;;;;;5014478;28;20473;-72
2022/03/13 10:53:40;;;;;;;23.40;18.25;;;12.20;99.90;;;;;;5014766;28;20057;-71
2022/03/13 10:56:12;;;;;;;25.10;18.38;;;12.30;99.90;;;;;;5014453;28;20121;-72
2022/03/13 10:58:44;;;;;;;24.35;17.40;;;12.40;99.90;;;;;;5004166;28;20066;-72
2022/03/13 11:01:12;;;;;;;21.33;16.58;;;12.40;99.90;;;;;;4994057;28;20122;-72
2022/03/13 11:03:49;;;;;;;24.58;18.50;;;12.50;99.90;;;;;;4995364;28;20105;-72
2022/03/13 11:06:16;;;;;;;19.80;17.02;;;12.70;99.90;;;;;;4997101;28;20042;-72
2022/03/13 11:08:42;;;;;;;26.08;17.85;;;12.80;99.90;;;;;;4999083;28;20042;-71
2022/03/13 11:11:15;;;;;;;23.17;18.20;;;12.90;99.90;;;;;;4998484;28;20051;-72
2022/03/13 11:13:42;;;;;;;22.52;18.02;;;13.00;99.90;;;;;;4998973;28;20049;-72
2022/03/13 11:16:10;;;;;;;23.17;18.55;;;13.10;99.90;;;;;;4998916;28;20111;-74
2022/03/13 11:18:37;;;;;;;22.38;18.00;;;13.10;99.90;;;;;;4999000;28;20036;-71
2022/03/13 11:21:08;;;;;;;22.95;17.45;;;13.10;99.90;;;;;;4994377;28;20479;-72
2022/03/13 11:23:34;;;;;;;23.15;17.15;;;13.10;99.90;;;;;;4994878;28;20054;-73
2022/03/13 11:26:00;;;;;;;22.38;18.20;;;13.00;99.90;;;;;;4997254;28;20042;-74
2022/03/13 11:28:30;;;;;;;24.48;17.83;;;13.10;99.90;;;;;;4997404;28;20476;-73
2022/03/13 11:30:56;;;;;;;23.73;18.20;;;13.10;99.90;;;;;;4998523;28;20083;-72
2022/03/13 11:33:41;;;;;;;23.90;18.52;;;13.20;99.90;;;;;;4998162;28;20057;-73
2022/03/13 11:36:29;;;;;;;24.30;18.52;;;13.40;99.90;;;;;;4998459;28;20054;-72
2022/03/13 11:39:00;;;;;;;23.20;17.95;;;13.50;99.90;;;;;;4998345;28;20050;-74
2022/03/13 11:41:50;;;;;;;21.85;17.48;;;13.60;99.90;;;;;;4998342;28;20042;-73
2022/03/13 11:44:19;;;;;;;22.40;17.63;;;13.80;99.90;;;;;;4997147;28;20154;-73
2022/03/13 11:46:47;;;;;;;21.95;18.25;;;13.80;99.90;;;;;;4997571;28;20460;-73
2022/03/13 11:49:33;;;;;;;23.90;18.63;;;13.90;99.90;;;;;;4998322;28;20054;-73
2022/03/13 11:52:11;;;;;;;22.67;18.00;;;14.00;99.90;;;;;;4997344;28;20057;-74
2022/03/13 11:54:56;;;;;;;22.33;18.40;;;14.10;99.90;;;;;;4997412;28;20058;-74
2022/03/13 11:57:24;;;;;;;22.25;18.10;;;14.30;99.90;;;;;;4998348;28;20181;-73
2022/03/13 12:00:12;;;;;;;21.20;18.02;;;14.40;99.90;;;;;;5017048;28;20034;-75
2022/03/13 12:02:40;;;;;;;21.38;17.60;;;14.40;99.90;;;;;;5015138;28;20095;-74
2022/03/13 12:05:24;;;;;;;22.23;17.65;;;14.50;99.90;;;;;;4984442;28;20119;-74
2022/03/13 12:08:04;;;;;;;23.08;17.95;;;14.50;99.90;;;;;;5017437;28;20089;-73
2022/03/13 12:10:41;;;;;;;21.73;17.38;;;14.50;99.90;;;;;;5017553;28;20041;-74
2022/03/13 12:13:15;;;;;;;20.55;17.17;;;14.50;99.90;;;;;;4999982;28;20042;-74
2022/03/13 12:15:43;;;;;;;19.27;15.68;;;14.60;99.90;;;;;;5016931;28;20044;-74
2022/03/13 12:18:18;;;;;;;19.98;16.88;;;14.70;99.90;;;;;;4998623;28;20077;-73
2022/03/13 12:20:46;;;;;;;25.98;18.08;;;14.70;99.90;;;;;;4978227;28;20039;-74
2022/03/13 12:23:26;;;;;;;19.08;16.20;;;14.60;99.90;;;;;;4977874;28;20109;-74
2022/03/13 12:25:53;;;;;;;18.70;15.52;;;14.80;99.90;;;;;;4977664;28;20046;-73
2022/03/13 12:28:30;;;;;;;17.15;14.57;;;14.90;99.90;;;;;;4977570;28;20082;-75
2022/03/13 12:31:01;;;;;;;18.42;15.43;;;15.00;99.50;;;;;;4996209;28;20069;-71
2022/03/13 12:33:30;;;;;;;18.35;15.30;;;15.00;99.30;;;;;;5017196;28;20574;-73
2022/03/13 12:35:56;;;;;;;17.83;15.07;;;15.00;99.80;;;;;;5005084;28;20042;-73